sensor_id;sensor_type;location;lat;lon;timestamp;pressure;altitude;pressure_sealevel;temperature;humidity
12146;BME280;6136;47.032;15.398;2023-07-13T00:00:47;97315.59;;;20.76;nan
12146;BME280;6136;47.032;15.398;2023-07-13T00:03:15;97303.16;;;20.75;nan
12146;BME280;6136;47.032;15.398;2023-07-13T00:05:44;97302.78;;;20.70;nan
12146;BME280;6136;47.032;15.398;2023-07-13T00:08:12;97292.38;;;20.67;nan
12146;BME280;6136;47.032;15.398;2023-07-13T00:10:40;97297.06;;;20.65;nan
12146;BME280;6136;47.032;15.398;2023-07-13T00:13:10;97300.78;;;20.64;nan
12146;BME280;6136;47.032;15.398;2023-07-13T00:15:38;97299.06;;;20.63;nan
12146;BME280;6136;47.032;15.398;2023-07-13T00:18:06;97288.31;;;20.63;nan
12146;BME280;6136;47.032;15.398;2023-07-13T00:20:35;97279.22;;;20.64;nan
12146;BME280;6136;47.032;15.398;2023-07-13T00:23:03;97273.84;;;20.64;nan
12146;BME280;6136;47.032;15.398;2023-07-13T00:25:31;97263.91;;;20.64;nan
12146;BME280;6136;47.032;15.398;2023-07-13T00:27:59;97266.94;;;20.69;nan
12146;BME280;6136;47.032;15.398;2023-07-13T00:30:28;97277.72;;;20.69;nan
12146;BME280;6136;47.032;15.398;2023-07-13T00:32:57;97268.78;;;20.69;nan
12146;BME280;6136;47.032;15.398;2023-07-13T00:35:43;97248.44;;;20.66;nan
12146;BME280;6136;47.032;15.398;2023-07-13T00:38:11;97231.09;;;20.61;nan
12146;BME280;6136;47.032;15.398;2023-07-13T00:40:39;97222.34;;;20.59;nan
12146;BME280;6136;47.032;15.398;2023-07-13T00:43:10;97227.72;;;20.59;nan
12146;BME280;6136;47.032;15.398;2023-07-13T00:48:48;97250.13;;;20.59;nan
12146;BME280;6136;47.032;15.398;2023-07-13T00:51:21;97229.75;;;20.57;nan
12146;BME280;6136;47.032;15.398;2023-07-13T00:53:53;97204.81;;;20.54;nan
12146;BME280;6136;47.032;15.398;2023-07-13T00:56:22;97193.06;;;20.56;nan
12146;BME280;6136;47.032;15.398;2023-07-13T00:58:52;97201.13;;;20.56;nan
12146;BME280;6136;47.032;15.398;2023-07-13T01:01:20;97199.13;;;20.58;nan
12146;BME280;6136;47.032;15.398;2023-07-13T01:03:50;97204.34;;;20.59;nan
12146;BME280;6136;47.032;15.398;2023-07-13T01:06:18;97180.97;;;20.60;nan
12146;BME280;6136;47.032;15.398;2023-07-13T01:08:47;97170.19;;;20.60;nan
12146;BME280;6136;47.032;15.398;2023-07-13T01:11:19;97182.63;;;20.61;nan
12146;BME280;6136;47.032;15.398;2023-07-13T01:13:48;97227.06;;;20.65;nan
12146;BME280;6136;47.032;15.398;2023-07-13T01:16:22;97259.88;;;20.68;nan
12146;BME280;6136;47.032;15.398;2023-07-13T01:18:53;97287.31;;;20.72;nan
12146;BME280;6136;47.032;15.398;2023-07-13T01:21:26;97288.66;;;20.76;nan
12146;BME280;6136;47.032;15.398;2023-07-13T01:23:55;97266.63;;;20.72;nan
12146;BME280;6136;47.032;15.398;2023-07-13T01:26:23;97274.88;;;20.71;nan
12146;BME280;6136;47.032;15.398;2023-07-13T01:28:51;97284.94;;;20.69;nan
12146;BME280;6136;47.032;15.398;2023-07-13T01:31:19;97286.78;;;20.68;nan
12146;BME280;6136;47.032;15.398;2023-07-13T01:33:48;97311.56;;;20.72;nan
12146;BME280;6136;47.032;15.398;2023-07-13T01:36:16;97347.56;;;20.71;nan
12146;BME280;6136;47.032;15.398;2023-07-13T01:38:45;97361.69;;;20.65;nan
12146;BME280;6136;47.032;15.398;2023-07-13T01:41:13;97365.03;;;20.59;nan
12146;BME280;6136;47.032;15.398;2023-07-13T01:43:41;97376.59;;;20.43;nan
12146;BME280;6136;47.032;15.398;2023-07-13T01:46:09;97411.88;;;20.40;nan
12146;BME280;6136;47.032;15.398;2023-07-13T01:48:49;97446.13;;;20.30;nan
12146;BME280;6136;47.032;15.398;2023-07-13T01:51:19;97524.25;;;20.20;nan
12146;BME280;6136;47.032;15.398;2023-07-13T01:53:48;97573.22;;;19.88;nan
12146;BME280;6136;47.032;15.398;2023-07-13T01:56:17;97617.00;;;19.63;nan
12146;BME280;6136;47.032;15.398;2023-07-13T01:58:45;97645.91;;;19.51;nan
12146;BME280;6136;47.032;15.398;2023-07-13T02:01:14;97675.09;;;19.36;nan
12146;BME280;6136;47.032;15.398;2023-07-13T02:03:42;97686.31;;;19.22;nan
12146;BME280;6136;47.032;15.398;2023-07-13T02:06:11;97705.13;;;19.22;nan
12146;BME280;6136;47.032;15.398;2023-07-13T02:08:40;97725.06;;;19.20;nan
12146;BME280;6136;47.032;15.398;2023-07-13T02:11:10;97735.41;;;19.05;nan
12146;BME280;6136;47.032;15.398;2023-07-13T02:13:39;97724.81;;;19.13;nan
12146;BME280;6136;47.032;15.398;2023-07-13T02:16:08;97717.31;;;19.17;nan
12146;BME280;6136;47.032;15.398;2023-07-13T02:18:36;97698.78;;;19.14;nan
12146;BME280;6136;47.032;15.398;2023-07-13T02:21:04;97665.56;;;19.15;nan
12146;BME280;6136;47.032;15.398;2023-07-13T02:23:33;97646.03;;;19.13;nan
12146;BME280;6136;47.032;15.398;2023-07-13T02:26:03;97615.81;;;19.11;nan
12146;BME280;6136;47.032;15.398;2023-07-13T02:28:32;97602.78;;;19.16;nan
12146;BME280;6136;47.032;15.398;2023-07-13T02:31:05;97561.09;;;19.12;nan
12146;BME280;6136;47.032;15.398;2023-07-13T02:33:33;97505.72;;;19.01;nan
12146;BME280;6136;47.032;15.398;2023-07-13T02:36:02;97467.75;;;18.96;nan
12146;BME280;6136;47.032;15.398;2023-07-13T02:38:32;97418.88;;;18.83;nan
12146;BME280;6136;47.032;15.398;2023-07-13T02:41:02;97393.22;;;18.80;nan
12146;BME280;6136;47.032;15.398;2023-07-13T02:43:30;97407.13;;;18.66;nan
12146;BME280;6136;47.032;15.398;2023-07-13T02:46:01;97399.75;;;18.68;nan
12146;BME280;6136;47.032;15.398;2023-07-13T02:48:35;97399.47;;;18.71;nan
12146;BME280;6136;47.032;15.398;2023-07-13T02:51:04;97397.25;;;18.67;nan
12146;BME280;6136;47.032;15.398;2023-07-13T02:53:32;97406.22;;;18.75;nan
12146;BME280;6136;47.032;15.398;2023-07-13T02:56:03;97436.44;;;18.77;nan
12146;BME280;6136;47.032;15.398;2023-07-13T02:58:31;97449.16;;;18.75;nan
12146;BME280;6136;47.032;15.398;2023-07-13T03:01:07;97478.44;;;18.69;nan
12146;BME280;6136;47.032;15.398;2023-07-13T03:03:36;97504.88;;;18.73;nan
12146;BME280;6136;47.032;15.398;2023-07-13T03:06:05;97543.72;;;18.69;nan
12146;BME280;6136;47.032;15.398;2023-07-13T03:08:44;97578.34;;;18.72;nan
12146;BME280;6136;47.032;15.398;2023-07-13T03:11:14;97645.06;;;18.67;nan
12146;BME280;6136;47.032;15.398;2023-07-13T03:13:45;97602.38;;;18.64;nan
12146;BME280;6136;47.032;15.398;2023-07-13T03:16:15;97594.91;;;18.58;nan
12146;BME280;6136;47.032;15.398;2023-07-13T03:18:47;97616.06;;;18.61;nan
12146;BME280;6136;47.032;15.398;2023-07-13T03:21:16;97589.53;;;18.58;nan
12146;BME280;6136;47.032;15.398;2023-07-13T03:23:45;97572.72;;;18.46;nan
12146;BME280;6136;47.032;15.398;2023-07-13T03:26:16;97571.31;;;18.52;nan
12146;BME280;6136;47.032;15.398;2023-07-13T03:28:45;97547.84;;;18.54;nan
12146;BME280;6136;47.032;15.398;2023-07-13T03:31:24;97463.66;;;18.65;nan
12146;BME280;6136;47.032;15.398;2023-07-13T03:33:52;97368.00;;;18.36;nan
12146;BME280;6136;47.032;15.398;2023-07-13T03:36:23;97303.16;;;18.41;nan
12146;BME280;6136;47.032;15.398;2023-07-13T03:38:56;97228.72;;;18.43;nan
12146;BME280;6136;47.032;15.398;2023-07-13T03:41:33;97217.56;;;18.38;nan
12146;BME280;6136;47.032;15.398;2023-07-13T03:44:01;97204.13;;;18.30;nan
12146;BME280;6136;47.032;15.398;2023-07-13T03:46:31;97204.50;;;18.35;nan
12146;BME280;6136;47.032;15.398;2023-07-13T03:49:01;97197.44;;;18.34;nan
12146;BME280;6136;47.032;15.398;2023-07-13T03:51:29;97233.00;;;18.36;nan
12146;BME280;6136;47.032;15.398;2023-07-13T03:53:58;97275.63;;;18.39;nan
12146;BME280;6136;47.032;15.398;2023-07-13T03:56:26;97271.09;;;18.39;nan
12146;BME280;6136;47.032;15.398;2023-07-13T03:58:55;97289.19;;;18.37;nan
12146;BME280;6136;47.032;15.398;2023-07-13T04:01:24;97320.22;;;18.40;nan
12146;BME280;6136;47.032;15.398;2023-07-13T04:03:54;97330.47;;;18.27;nan
12146;BME280;6136;47.032;15.398;2023-07-13T04:06:26;97359.63;;;18.39;nan
12146;BME280;6136;47.032;15.398;2023-07-13T04:08:58;97369.41;;;18.31;nan
12146;BME280;6136;47.032;15.398;2023-07-13T04:11:28;97389.50;;;18.27;nan
12146;BME280;6136;47.032;15.398;2023-07-13T04:13:59;97399.22;;;18.28;nan
12146;BME280;6136;47.032;15.398;2023-07-13T04:16:28;97409.25;;;18.26;nan
12146;BME280;6136;47.032;15.398;2023-07-13T04:18:58;97410.66;;;18.30;nan
12146;BME280;6136;47.032;15.398;2023-07-13T04:21:28;97409.81;;;18.29;nan
12146;BME280;6136;47.032;15.398;2023-07-13T04:23:57;97421.66;;;18.36;nan
12146;BME280;6136;47.032;15.398;2023-07-13T04:26:25;97428.53;;;18.39;nan
12146;BME280;6136;47.032;15.398;2023-07-13T04:28:54;97427.03;;;18.36;nan
12146;BME280;6136;47.032;15.398;2023-07-13T04:31:22;97435.19;;;18.44;nan
12146;BME280;6136;47.032;15.398;2023-07-13T04:33:51;97435.19;;;18.44;nan
12146;BME280;6136;47.032;15.398;2023-07-13T04:36:21;97438.25;;;18.49;nan
12146;BME280;6136;47.032;15.398;2023-07-13T04:38:49;97443.63;;;18.49;nan
12146;BME280;6136;47.032;15.398;2023-07-13T04:41:18;97451.06;;;18.55;nan
12146;BME280;6136;47.032;15.398;2023-07-13T04:43:46;97446.03;;;18.52;nan
12146;BME280;6136;47.032;15.398;2023-07-13T04:46:16;97437.97;;;18.52;nan
12146;BME280;6136;47.032;15.398;2023-07-13T04:48:46;97443.63;;;18.49;nan
12146;BME280;6136;47.032;15.398;2023-07-13T04:51:14;97450.97;;;18.57;nan
12146;BME280;6136;47.032;15.398;2023-07-13T04:53:44;97450.97;;;18.57;nan
12146;BME280;6136;47.032;15.398;2023-07-13T04:56:12;97445.00;;;18.63;nan
12146;BME280;6136;47.032;15.398;2023-07-13T04:58:40;97437.34;;;18.68;nan
12146;BME280;6136;47.032;15.398;2023-07-13T05:01:09;97436.22;;;18.71;nan
12146;BME280;6136;47.032;15.398;2023-07-13T05:03:38;97429.72;;;18.73;nan
12146;BME280;6136;47.032;15.398;2023-07-13T05:06:07;97432.53;;;18.72;nan
12146;BME280;6136;47.032;15.398;2023-07-13T05:08:37;97424.34;;;18.73;nan
12146;BME280;6136;47.032;15.398;2023-07-13T05:11:06;97426.69;;;18.76;nan
12146;BME280;6136;47.032;15.398;2023-07-13T05:13:35;97422.69;;;18.63;nan
12146;BME280;6136;47.032;15.398;2023-07-13T05:16:05;97431.53;;;18.73;nan
12146;BME280;6136;47.032;15.398;2023-07-13T05:18:35;97430.38;;;18.75;nan
12146;BME280;6136;47.032;15.398;2023-07-13T05:21:05;97430.81;;;18.80;nan
12146;BME280;6136;47.032;15.398;2023-07-13T05:23:35;97429.06;;;18.89;nan
12146;BME280;6136;47.032;15.398;2023-07-13T05:26:04;97432.28;;;18.92;nan
12146;BME280;6136;47.032;15.398;2023-07-13T05:28:37;97433.75;;;19.05;nan
12146;BME280;6136;47.032;15.398;2023-07-13T05:31:07;97429.72;;;19.18;nan
12146;BME280;6136;47.032;15.398;2023-07-13T05:33:36;97425.19;;;19.19;nan
12146;BME280;6136;47.032;15.398;2023-07-13T05:36:04;97413.81;;;19.25;nan
12146;BME280;6136;47.032;15.398;2023-07-13T05:38:33;97417.13;;;19.36;nan
12146;BME280;6136;47.032;15.398;2023-07-13T05:41:02;97418.78;;;19.47;nan
12146;BME280;6136;47.032;15.398;2023-07-13T05:43:31;97414.13;;;19.57;nan
12146;BME280;6136;47.032;15.398;2023-07-13T05:46:01;97414.34;;;19.64;nan
12146;BME280;6136;47.032;15.398;2023-07-13T05:48:29;97422.81;;;19.69;nan
12146;BME280;6136;47.032;15.398;2023-07-13T05:50:57;97420.81;;;19.71;nan
12146;BME280;6136;47.032;15.398;2023-07-13T05:53:25;97434.38;;;19.87;nan
12146;BME280;6136;47.032;15.398;2023-07-13T05:55:55;97437.28;;;19.94;nan
12146;BME280;6136;47.032;15.398;2023-07-13T05:58:25;97453.81;;;19.99;nan
12146;BME280;6136;47.032;15.398;2023-07-13T06:01:01;97450.72;;;20.11;nan
12146;BME280;6136;47.032;15.398;2023-07-13T06:03:30;97449.84;;;20.11;nan
12146;BME280;6136;47.032;15.398;2023-07-13T06:05:58;97440.16;;;20.18;nan
12146;BME280;6136;47.032;15.398;2023-07-13T06:08:28;97441.53;;;20.22;nan
12146;BME280;6136;47.032;15.398;2023-07-13T06:11:02;97436.66;;;20.43;nan
12146;BME280;6136;47.032;15.398;2023-07-13T06:13:30;97439.78;;;20.65;nan
12146;BME280;6136;47.032;15.398;2023-07-13T06:15:58;97450.72;;;20.63;nan
12146;BME280;6136;47.032;15.398;2023-07-13T06:18:28;97459.69;;;20.72;nan
12146;BME280;6136;47.032;15.398;2023-07-13T06:20:56;97462.13;;;20.99;nan
12146;BME280;6136;47.032;15.398;2023-07-13T06:23:24;97449.72;;;21.14;nan
12146;BME280;6136;47.032;15.398;2023-07-13T06:25:53;97454.13;;;21.15;nan
12146;BME280;6136;47.032;15.398;2023-07-13T06:28:21;97451.50;;;21.40;nan
12146;BME280;6136;47.032;15.398;2023-07-13T06:30:49;97443.63;;;21.62;nan
12146;BME280;6136;47.032;15.398;2023-07-13T06:33:17;97444.66;;;21.69;nan
12146;BME280;6136;47.032;15.398;2023-07-13T06:35:46;97436.72;;;21.68;nan
12146;BME280;6136;47.032;15.398;2023-07-13T06:38:15;97442.44;;;21.81;nan
12146;BME280;6136;47.032;15.398;2023-07-13T06:40:43;97440.78;;;21.96;nan
12146;BME280;6136;47.032;15.398;2023-07-13T06:43:11;97444.31;;;22.05;nan
12146;BME280;6136;47.032;15.398;2023-07-13T06:45:41;97449.03;;;22.27;nan
12146;BME280;6136;47.032;15.398;2023-07-13T06:48:10;97450.88;;;22.35;nan
12146;BME280;6136;47.032;15.398;2023-07-13T06:50:38;97467.38;;;22.40;nan
12146;BME280;6136;47.032;15.398;2023-07-13T06:53:07;97465.34;;;22.58;nan
12146;BME280;6136;47.032;15.398;2023-07-13T06:55:35;97474.75;;;22.70;nan
12146;BME280;6136;47.032;15.398;2023-07-13T06:58:04;97474.25;;;22.75;nan
12146;BME280;6136;47.032;15.398;2023-07-13T07:00:32;97466.44;;;22.96;nan
12146;BME280;6136;47.032;15.398;2023-07-13T07:03:01;97483.06;;;23.16;nan
12146;BME280;6136;47.032;15.398;2023-07-13T07:05:29;97466.72;;;23.40;nan
12146;BME280;6136;47.032;15.398;2023-07-13T07:07:58;97464.91;;;23.64;nan
12146;BME280;6136;47.032;15.398;2023-07-13T07:10:29;97474.22;;;23.61;nan
12146;BME280;6136;47.032;15.398;2023-07-13T07:12:57;97482.94;;;23.71;nan
12146;BME280;6136;47.032;15.398;2023-07-13T07:15:26;97483.31;;;23.91;nan
12146;BME280;6136;47.032;15.398;2023-07-13T07:17:54;97485.44;;;24.18;nan
12146;BME280;6136;47.032;15.398;2023-07-13T07:20:23;97488.91;;;24.50;nan
12146;BME280;6136;47.032;15.398;2023-07-13T07:22:51;97490.03;;;24.70;nan
12146;BME280;6136;47.032;15.398;2023-07-13T07:25:19;97481.59;;;25.02;nan
12146;BME280;6136;47.032;15.398;2023-07-13T07:27:49;97481.47;;;25.10;nan
12146;BME280;6136;47.032;15.398;2023-07-13T07:30:20;97470.09;;;25.36;nan
12146;BME280;6136;47.032;15.398;2023-07-13T07:32:51;97468.78;;;25.62;nan
12146;BME280;6136;47.032;15.398;2023-07-13T07:35:23;97455.72;;;25.57;nan
12146;BME280;6136;47.032;15.398;2023-07-13T07:37:51;97447.56;;;25.36;nan
12146;BME280;6136;47.032;15.398;2023-07-13T07:40:19;97450.22;;;25.65;nan
12146;BME280;6136;47.032;15.398;2023-07-13T07:42:52;97455.34;;;25.75;nan
12146;BME280;6136;47.032;15.398;2023-07-13T07:45:20;97460.44;;;25.84;nan
12146;BME280;6136;47.032;15.398;2023-07-13T07:47:48;97448.34;;;26.08;nan
12146;BME280;6136;47.032;15.398;2023-07-13T07:50:17;97435.91;;;26.20;nan
12146;BME280;6136;47.032;15.398;2023-07-13T07:52:46;97441.78;;;26.24;nan
12146;BME280;6136;47.032;15.398;2023-07-13T07:55:14;97449.97;;;26.52;nan
12146;BME280;6136;47.032;15.398;2023-07-13T07:57:45;97464.91;;;26.69;nan
12146;BME280;6136;47.032;15.398;2023-07-13T08:00:18;97465.56;;;26.99;nan
12146;BME280;6136;47.032;15.398;2023-07-13T08:02:50;97452.91;;;27.19;nan
12146;BME280;6136;47.032;15.398;2023-07-13T08:05:21;97474.88;;;27.18;nan
12146;BME280;6136;47.032;15.398;2023-07-13T08:08:03;97477.03;;;28.03;nan
12146;BME280;6136;47.032;15.398;2023-07-13T08:10:31;97467.00;;;28.16;nan
12146;BME280;6136;47.032;15.398;2023-07-13T08:12:59;97468.69;;;28.57;nan
12146;BME280;6136;47.032;15.398;2023-07-13T08:15:31;97461.31;;;28.11;nan
12146;BME280;6136;47.032;15.398;2023-07-13T08:17:59;97452.38;;;28.31;nan
12146;BME280;6136;47.032;15.398;2023-07-13T08:20:27;97467.41;;;28.86;nan
12146;BME280;6136;47.032;15.398;2023-07-13T08:22:56;97458.84;;;28.82;nan
12146;BME280;6136;47.032;15.398;2023-07-13T08:25:24;97449.63;;;28.50;nan
12146;BME280;6136;47.032;15.398;2023-07-13T08:27:52;97439.34;;;28.33;nan
12146;BME280;6136;47.032;15.398;2023-07-13T08:30:20;97438.91;;;28.49;nan
12146;BME280;6136;47.032;15.398;2023-07-13T08:32:50;97446.47;;;28.47;nan
12146;BME280;6136;47.032;15.398;2023-07-13T08:35:18;97441.47;;;28.31;nan
12146;BME280;6136;47.032;15.398;2023-07-13T08:37:46;97460.91;;;28.74;nan
12146;BME280;6136;47.032;15.398;2023-07-13T08:40:14;97459.88;;;28.62;nan
12146;BME280;6136;47.032;15.398;2023-07-13T08:42:53;97447.94;;;28.56;nan
12146;BME280;6136;47.032;15.398;2023-07-13T08:45:24;97434.72;;;28.79;nan
12146;BME280;6136;47.032;15.398;2023-07-13T08:48:05;97443.91;;;28.91;nan
12146;BME280;6136;47.032;15.398;2023-07-13T08:50:43;97446.50;;;29.31;nan
12146;BME280;6136;47.032;15.398;2023-07-13T08:53:31;97439.00;;;29.64;nan
12146;BME280;6136;47.032;15.398;2023-07-13T08:56:02;97434.91;;;29.80;nan
12146;BME280;6136;47.032;15.398;2023-07-13T08:58:33;97435.16;;;29.79;nan
12146;BME280;6136;47.032;15.398;2023-07-13T09:01:06;97433.19;;;30.17;nan
12146;BME280;6136;47.032;15.398;2023-07-13T09:03:48;97429.84;;;29.52;nan
12146;BME280;6136;47.032;15.398;2023-07-13T09:06:23;97417.47;;;29.43;nan
12146;BME280;6136;47.032;15.398;2023-07-13T09:08:59;97421.09;;;29.37;nan
12146;BME280;6136;47.032;15.398;2023-07-13T09:11:45;97423.94;;;29.55;nan
12146;BME280;6136;47.032;15.398;2023-07-13T09:14:33;97426.84;;;29.60;nan
12146;BME280;6136;47.032;15.398;2023-07-13T09:17:03;97426.69;;;29.55;nan
12146;BME280;6136;47.032;15.398;2023-07-13T09:19:34;97430.22;;;29.94;nan
12146;BME280;6136;47.032;15.398;2023-07-13T09:22:04;97436.91;;;30.29;nan
12146;BME280;6136;47.032;15.398;2023-07-13T09:24:39;97443.03;;;30.74;nan
12146;BME280;6136;47.032;15.398;2023-07-13T09:27:14;97440.41;;;31.04;nan
12146;BME280;6136;47.032;15.398;2023-07-13T09:29:47;97441.69;;;31.38;nan
12146;BME280;6136;47.032;15.398;2023-07-13T09:32:18;97433.56;;;31.32;nan
12146;BME280;6136;47.032;15.398;2023-07-13T09:34:54;97440.06;;;31.67;nan
12146;BME280;6136;47.032;15.398;2023-07-13T09:37:28;97441.75;;;31.68;nan
12146;BME280;6136;47.032;15.398;2023-07-13T09:39:59;97431.72;;;31.92;nan
12146;BME280;6136;47.032;15.398;2023-07-13T09:42:32;97420.69;;;31.80;nan
12146;BME280;6136;47.032;15.398;2023-07-13T09:45:02;97428.13;;;31.91;nan
12146;BME280;6136;47.032;15.398;2023-07-13T09:47:33;97430.13;;;31.84;nan
12146;BME280;6136;47.032;15.398;2023-07-13T09:50:16;97432.75;;;32.21;nan
12146;BME280;6136;47.032;15.398;2023-07-13T09:52:46;97431.53;;;32.17;nan
12146;BME280;6136;47.032;15.398;2023-07-13T09:55:24;97434.19;;;32.47;nan
12146;BME280;6136;47.032;15.398;2023-07-13T09:57:53;97435.31;;;32.92;nan
12146;BME280;6136;47.032;15.398;2023-07-13T10:00:23;97432.06;;;33.19;nan
12146;BME280;6136;47.032;15.398;2023-07-13T10:03:00;97431.50;;;32.70;nan
12146;BME280;6136;47.032;15.398;2023-07-13T10:05:43;97434.13;;;32.88;nan
12146;BME280;6136;47.032;15.398;2023-07-13T10:08:23;97429.13;;;32.73;nan
12146;BME280;6136;47.032;15.398;2023-07-13T10:10:59;97432.06;;;32.49;nan
12146;BME280;6136;47.032;15.398;2023-07-13T10:13:31;97430.97;;;32.15;nan
12146;BME280;6136;47.032;15.398;2023-07-13T10:16:01;97424.59;;;32.14;nan
12146;BME280;6136;47.032;15.398;2023-07-13T10:18:38;97416.41;;;32.26;nan
12146;BME280;6136;47.032;15.398;2023-07-13T10:21:15;97414.09;;;32.11;nan
12146;BME280;6136;47.032;15.398;2023-07-13T10:23:50;97415.72;;;32.42;nan
12146;BME280;6136;47.032;15.398;2023-07-13T10:26:23;97407.16;;;31.97;nan
12146;BME280;6136;47.032;15.398;2023-07-13T10:28:56;97419.53;;;31.88;nan
12146;BME280;6136;47.032;15.398;2023-07-13T10:31:27;97406.75;;;31.70;nan
12146;BME280;6136;47.032;15.398;2023-07-13T10:33:55;97411.91;;;31.90;nan
12146;BME280;6136;47.032;15.398;2023-07-13T10:36:32;97413.28;;;31.69;nan
12146;BME280;6136;47.032;15.398;2023-07-13T10:39:04;97416.38;;;31.73;nan
12146;BME280;6136;47.032;15.398;2023-07-13T10:41:36;97418.84;;;31.92;nan
12146;BME280;6136;47.032;15.398;2023-07-13T10:44:15;97417.16;;;31.91;nan
12146;BME280;6136;47.032;15.398;2023-07-13T10:46:47;97418.84;;;32.04;nan
12146;BME280;6136;47.032;15.398;2023-07-13T10:49:16;97407.38;;;31.95;nan
12146;BME280;6136;47.032;15.398;2023-07-13T10:51:47;97412.88;;;32.37;nan
12146;BME280;6136;47.032;15.398;2023-07-13T10:54:18;97422.97;;;33.06;nan
12146;BME280;6136;47.032;15.398;2023-07-13T10:56:50;97422.19;;;33.46;nan
12146;BME280;6136;47.032;15.398;2023-07-13T10:59:24;97420.47;;;33.28;nan
12146;BME280;6136;47.032;15.398;2023-07-13T11:01:57;97432.91;;;32.49;nan
12146;BME280;6136;47.032;15.398;2023-07-13T11:04:27;97426.22;;;32.33;nan
12146;BME280;6136;47.032;15.398;2023-07-13T11:07:00;97405.22;;;32.39;nan
12146;BME280;6136;47.032;15.398;2023-07-13T11:09:39;97390.22;;;31.88;nan
12146;BME280;6136;47.032;15.398;2023-07-13T11:15:13;97391.75;;;31.84;nan
12146;BME280;6136;47.032;15.398;2023-07-13T11:17:53;97392.94;;;32.65;nan
12146;BME280;6136;47.032;15.398;2023-07-13T11:20:34;97397.00;;;32.97;nan
12146;BME280;6136;47.032;15.398;2023-07-13T11:23:32;97406.16;;;32.33;nan
12146;BME280;6136;47.032;15.398;2023-07-13T11:26:00;97401.63;;;32.27;nan
12146;BME280;6136;47.032;15.398;2023-07-13T11:28:31;97394.34;;;31.79;nan
12146;BME280;6136;47.032;15.398;2023-07-13T11:31:15;97383.03;;;31.76;nan
12146;BME280;6136;47.032;15.398;2023-07-13T11:33:53;97388.25;;;31.17;nan
12146;BME280;6136;47.032;15.398;2023-07-13T11:36:27;97388.25;;;30.81;nan
12146;BME280;6136;47.032;15.398;2023-07-13T11:39:03;97385.38;;;30.26;nan
12146;BME280;6136;47.032;15.398;2023-07-13T11:41:35;97389.09;;;30.14;nan
12146;BME280;6136;47.032;15.398;2023-07-13T11:44:12;97383.22;;;30.35;nan
12146;BME280;6136;47.032;15.398;2023-07-13T11:46:45;97387.41;;;30.13;nan
12146;BME280;6136;47.032;15.398;2023-07-13T11:49:18;97402.13;;;30.36;nan
12146;BME280;6136;47.032;15.398;2023-07-13T11:51:50;97403.41;;;30.09;nan
12146;BME280;6136;47.032;15.398;2023-07-13T11:54:28;97385.56;;;29.75;nan
12146;BME280;6136;47.032;15.398;2023-07-13T11:56:58;97383.63;;;29.51;nan
12146;BME280;6136;47.032;15.398;2023-07-13T11:59:29;97384.97;;;29.35;nan
12146;BME280;6136;47.032;15.398;2023-07-13T12:01:59;97378.19;;;29.44;nan
12146;BME280;6136;47.032;15.398;2023-07-13T12:04:32;97373.66;;;30.01;nan
12146;BME280;6136;47.032;15.398;2023-07-13T12:07:05;97375.53;;;30.50;nan
12146;BME280;6136;47.032;15.398;2023-07-13T12:09:37;97374.66;;;30.49;nan
12146;BME280;6136;47.032;15.398;2023-07-13T12:12:11;97385.72;;;30.36;nan
12146;BME280;6136;47.032;15.398;2023-07-13T12:14:40;97369.41;;;30.05;nan
12146;BME280;6136;47.032;15.398;2023-07-13T12:17:11;97363.19;;;29.91;nan
12146;BME280;6136;47.032;15.398;2023-07-13T12:19:41;97364.13;;;29.79;nan
12146;BME280;6136;47.032;15.398;2023-07-13T12:22:11;97362.44;;;29.78;nan
12146;BME280;6136;47.032;15.398;2023-07-13T12:24:43;97370.22;;;29.49;nan
12146;BME280;6136;47.032;15.398;2023-07-13T12:27:19;97378.78;;;29.08;nan
12146;BME280;6136;47.032;15.398;2023-07-13T12:29:52;97381.03;;;28.53;nan
12146;BME280;6136;47.032;15.398;2023-07-13T12:32:21;97367.84;;;27.98;nan
12146;BME280;6136;47.032;15.398;2023-07-13T12:34:53;97356.66;;;27.33;nan
12146;BME280;6136;47.032;15.398;2023-07-13T12:37:23;97348.63;;;27.05;nan
12146;BME280;6136;47.032;15.398;2023-07-13T12:39:53;97349.44;;;26.58;nan
12146;BME280;6136;47.032;15.398;2023-07-13T12:42:25;97379.91;;;26.47;nan
12146;BME280;6136;47.032;15.398;2023-07-13T12:44:57;97389.66;;;26.35;nan
12146;BME280;6136;47.032;15.398;2023-07-13T12:47:27;97397.38;;;26.10;nan
12146;BME280;6136;47.032;15.398;2023-07-13T12:49:56;97399.34;;;25.95;nan
12146;BME280;6136;47.032;15.398;2023-07-13T12:52:29;97422.94;;;25.73;nan
12146;BME280;6136;47.032;15.398;2023-07-13T12:55:04;97421.22;;;25.51;nan
12146;BME280;6136;47.032;15.398;2023-07-13T12:57:39;97422.41;;;25.27;nan
12146;BME280;6136;47.032;15.398;2023-07-13T13:00:21;97447.25;;;25.09;nan
12146;BME280;6136;47.032;15.398;2023-07-13T13:02:53;97430.81;;;24.96;nan
12146;BME280;6136;47.032;15.398;2023-07-13T13:05:34;97433.69;;;24.80;nan
12146;BME280;6136;47.032;15.398;2023-07-13T13:08:04;97440.22;;;24.56;nan
12146;BME280;6136;47.032;15.398;2023-07-13T13:10:34;97435.38;;;24.52;nan
12146;BME280;6136;47.032;15.398;2023-07-13T13:13:02;97454.13;;;24.53;nan
12146;BME280;6136;47.032;15.398;2023-07-13T13:15:31;97468.25;;;24.49;nan
12146;BME280;6136;47.032;15.398;2023-07-13T13:17:59;97464.75;;;24.25;nan
12146;BME280;6136;47.032;15.398;2023-07-13T13:20:27;97464.16;;;24.15;nan
12146;BME280;6136;47.032;15.398;2023-07-13T13:22:55;97461.88;;;24.04;nan
12146;BME280;6136;47.032;15.398;2023-07-13T13:25:25;97447.44;;;23.89;nan
12146;BME280;6136;47.032;15.398;2023-07-13T13:27:54;97446.84;;;23.79;nan
12146;BME280;6136;47.032;15.398;2023-07-13T13:30:23;97466.56;;;23.65;nan
12146;BME280;6136;47.032;15.398;2023-07-13T13:32:51;97469.53;;;23.47;nan
12146;BME280;6136;47.032;15.398;2023-07-13T13:35:20;97481.22;;;23.08;nan
12146;BME280;6136;47.032;15.398;2023-07-13T13:37:48;97460.19;;;22.96;nan
12146;BME280;6136;47.032;15.398;2023-07-13T13:40:19;97458.38;;;22.80;nan
12146;BME280;6136;47.032;15.398;2023-07-13T13:42:48;97444.19;;;22.70;nan
12146;BME280;6136;47.032;15.398;2023-07-13T13:45:18;97444.03;;;22.63;nan
12146;BME280;6136;47.032;15.398;2023-07-13T13:47:48;97434.63;;;22.51;nan